sensor_id;sensor_type;location;lat;lon;timestamp;P1;durP1;ratioP1;P2;durP2;ratioP2
54883;SDS011;40776;52.880;6.016;2023-04-07T00:00:36;54.35;;;30.50;;
54883;SDS011;40776;52.880;6.016;2023-04-07T00:03:02;52.47;;;29.83;;
54883;SDS011;40776;52.880;6.016;2023-04-07T00:05:31;55.50;;;31.38;;
54883;SDS011;40776;52.880;6.016;2023-04-07T00:07:57;55.00;;;32.45;;
54883;SDS011;40776;52.880;6.016;2023-04-07T00:10:23;50.38;;;29.67;;
54883;SDS011;40776;52.880;6.016;2023-04-07T00:12:49;55.72;;;30.65;;
54883;SDS011;40776;52.880;6.016;2023-04-07T00:15:15;56.05;;;31.75;;
54883;SDS011;40776;52.880;6.016;2023-04-07T00:17:41;58.00;;;31.65;;
54883;SDS011;40776;52.880;6.016;2023-04-07T00:20:07;58.60;;;31.83;;
54883;SDS011;40776;52.880;6.016;2023-04-07T00:22:34;62.22;;;32.45;;
54883;SDS011;40776;52.880;6.016;2023-04-07T00:25:00;54.55;;;31.48;;
54883;SDS011;40776;52.880;6.016;2023-04-07T00:27:26;52.10;;;30.02;;
54883;SDS011;40776;52.880;6.016;2023-04-07T00:29:52;53.42;;;29.02;;
54883;SDS011;40776;52.880;6.016;2023-04-07T00:32:19;53.65;;;30.52;;
54883;SDS011;40776;52.880;6.016;2023-04-07T00:34:46;61.30;;;32.67;;
54883;SDS011;40776;52.880;6.016;2023-04-07T00:37:12;59.15;;;31.88;;
54883;SDS011;40776;52.880;6.016;2023-04-07T00:39:38;69.38;;;34.40;;
54883;SDS011;40776;52.880;6.016;2023-04-07T00:42:04;67.00;;;33.30;;
54883;SDS011;40776;52.880;6.016;2023-04-07T00:44:30;68.75;;;33.90;;
54883;SDS011;40776;52.880;6.016;2023-04-07T00:46:56;53.33;;;30.83;;
54883;SDS011;40776;52.880;6.016;2023-04-07T00:49:23;64.75;;;32.55;;
54883;SDS011;40776;52.880;6.016;2023-04-07T00:51:52;64.20;;;32.33;;
54883;SDS011;40776;52.880;6.016;2023-04-07T00:54:18;63.78;;;32.42;;
54883;SDS011;40776;52.880;6.016;2023-04-07T00:56:44;56.35;;;32.10;;
54883;SDS011;40776;52.880;6.016;2023-04-07T00:59:10;62.40;;;32.15;;
54883;SDS011;40776;52.880;6.016;2023-04-07T01:01:43;66.65;;;32.55;;
54883;SDS011;40776;52.880;6.016;2023-04-07T01:04:19;72.80;;;34.88;;
54883;SDS011;40776;52.880;6.016;2023-04-07T01:06:48;66.45;;;32.63;;
54883;SDS011;40776;52.880;6.016;2023-04-07T01:09:17;65.22;;;34.42;;
54883;SDS011;40776;52.880;6.016;2023-04-07T01:11:49;60.17;;;31.80;;
54883;SDS011;40776;52.880;6.016;2023-04-07T01:14:17;61.38;;;31.00;;
54883;SDS011;40776;52.880;6.016;2023-04-07T01:16:48;69.25;;;32.72;;
54883;SDS011;40776;52.880;6.016;2023-04-07T01:19:15;65.53;;;32.75;;
54883;SDS011;40776;52.880;6.016;2023-04-07T01:21:47;68.78;;;32.50;;
54883;SDS011;40776;52.880;6.016;2023-04-07T01:26:43;63.13;;;32.28;;
54883;SDS011;40776;52.880;6.016;2023-04-07T01:31:47;71.53;;;31.40;;
54883;SDS011;40776;52.880;6.016;2023-04-07T01:34:14;61.85;;;31.38;;
54883;SDS011;40776;52.880;6.016;2023-04-07T01:36:41;79.68;;;33.00;;
54883;SDS011;40776;52.880;6.016;2023-04-07T01:39:08;71.82;;;33.45;;
54883;SDS011;40776;52.880;6.016;2023-04-07T01:41:34;81.93;;;34.58;;
54883;SDS011;40776;52.880;6.016;2023-04-07T01:44:01;80.45;;;34.28;;
54883;SDS011;40776;52.880;6.016;2023-04-07T01:46:27;67.38;;;31.73;;
54883;SDS011;40776;52.880;6.016;2023-04-07T01:48:54;63.45;;;30.85;;
54883;SDS011;40776;52.880;6.016;2023-04-07T01:51:20;87.13;;;33.63;;
54883;SDS011;40776;52.880;6.016;2023-04-07T01:53:47;61.28;;;29.45;;
54883;SDS011;40776;52.880;6.016;2023-04-07T01:56:14;60.50;;;29.52;;
54883;SDS011;40776;52.880;6.016;2023-04-07T01:58:41;61.30;;;29.17;;
54883;SDS011;40776;52.880;6.016;2023-04-07T02:01:07;60.92;;;29.25;;
54883;SDS011;40776;52.880;6.016;2023-04-07T02:03:35;54.65;;;27.95;;
54883;SDS011;40776;52.880;6.016;2023-04-07T02:06:05;73.55;;;29.05;;
54883;SDS011;40776;52.880;6.016;2023-04-07T02:08:32;67.78;;;27.85;;
54883;SDS011;40776;52.880;6.016;2023-04-07T02:11:00;70.53;;;26.08;;
54883;SDS011;40776;52.880;6.016;2023-04-07T02:13:27;68.57;;;26.10;;
54883;SDS011;40776;52.880;6.016;2023-04-07T02:15:54;53.45;;;25.50;;
54883;SDS011;40776;52.880;6.016;2023-04-07T02:18:21;43.35;;;18.08;;
54883;SDS011;40776;52.880;6.016;2023-04-07T02:20:48;44.63;;;18.17;;
54883;SDS011;40776;52.880;6.016;2023-04-07T02:23:15;51.15;;;21.92;;
54883;SDS011;40776;52.880;6.016;2023-04-07T02:25:41;42.83;;;18.00;;
54883;SDS011;40776;52.880;6.016;2023-04-07T02:28:07;43.47;;;18.58;;
54883;SDS011;40776;52.880;6.016;2023-04-07T02:30:34;50.95;;;22.25;;
54883;SDS011;40776;52.880;6.016;2023-04-07T02:33:00;49.28;;;22.63;;
54883;SDS011;40776;52.880;6.016;2023-04-07T02:35:26;41.22;;;16.70;;
54883;SDS011;40776;52.880;6.016;2023-04-07T02:37:52;36.33;;;16.55;;
54883;SDS011;40776;52.880;6.016;2023-04-07T02:40:18;37.67;;;14.68;;
54883;SDS011;40776;52.880;6.016;2023-04-07T02:42:45;36.70;;;13.18;;
54883;SDS011;40776;52.880;6.016;2023-04-07T02:45:11;34.42;;;11.25;;
54883;SDS011;40776;52.880;6.016;2023-04-07T02:47:37;33.60;;;11.10;;
54883;SDS011;40776;52.880;6.016;2023-04-07T02:50:04;30.73;;;11.23;;
54883;SDS011;40776;52.880;6.016;2023-04-07T02:52:30;32.05;;;11.50;;
54883;SDS011;40776;52.880;6.016;2023-04-07T02:54:56;36.42;;;11.98;;
54883;SDS011;40776;52.880;6.016;2023-04-07T02:57:22;32.72;;;11.40;;
54883;SDS011;40776;52.880;6.016;2023-04-07T02:59:48;30.02;;;10.63;;
54883;SDS011;40776;52.880;6.016;2023-04-07T03:02:15;28.67;;;10.73;;
54883;SDS011;40776;52.880;6.016;2023-04-07T03:04:41;37.80;;;10.18;;
54883;SDS011;40776;52.880;6.016;2023-04-07T03:07:07;34.45;;;10.80;;
54883;SDS011;40776;52.880;6.016;2023-04-07T03:09:33;33.28;;;12.38;;
54883;SDS011;40776;52.880;6.016;2023-04-07T03:11:59;33.45;;;10.95;;
54883;SDS011;40776;52.880;6.016;2023-04-07T03:14:26;28.60;;;11.02;;
54883;SDS011;40776;52.880;6.016;2023-04-07T03:16:52;27.75;;;10.20;;
54883;SDS011;40776;52.880;6.016;2023-04-07T03:19:18;32.13;;;10.95;;
54883;SDS011;40776;52.880;6.016;2023-04-07T03:21:44;30.67;;;10.15;;
54883;SDS011;40776;52.880;6.016;2023-04-07T03:24:10;27.83;;;9.60;;
54883;SDS011;40776;52.880;6.016;2023-04-07T03:26:36;29.05;;;10.02;;
54883;SDS011;40776;52.880;6.016;2023-04-07T03:29:02;33.50;;;10.23;;
54883;SDS011;40776;52.880;6.016;2023-04-07T03:31:28;32.97;;;9.57;;
54883;SDS011;40776;52.880;6.016;2023-04-07T03:33:55;29.73;;;9.60;;
54883;SDS011;40776;52.880;6.016;2023-04-07T03:36:21;31.88;;;9.80;;
54883;SDS011;40776;52.880;6.016;2023-04-07T03:38:48;34.30;;;9.73;;
54883;SDS011;40776;52.880;6.016;2023-04-07T03:41:14;24.42;;;8.88;;
54883;SDS011;40776;52.880;6.016;2023-04-07T03:43:40;32.97;;;8.95;;
54883;SDS011;40776;52.880;6.016;2023-04-07T03:48:38;27.70;;;10.07;;
54883;SDS011;40776;52.880;6.016;2023-04-07T03:51:05;28.02;;;8.90;;
54883;SDS011;40776;52.880;6.016;2023-04-07T03:53:31;25.27;;;8.38;;
54883;SDS011;40776;52.880;6.016;2023-04-07T03:55:57;20.30;;;7.90;;
54883;SDS011;40776;52.880;6.016;2023-04-07T03:58:23;36.88;;;9.32;;
54883;SDS011;40776;52.880;6.016;2023-04-07T04:00:49;29.75;;;8.55;;
54883;SDS011;40776;52.880;6.016;2023-04-07T04:03:15;25.80;;;8.18;;
54883;SDS011;40776;52.880;6.016;2023-04-07T04:05:41;31.67;;;9.10;;
54883;SDS011;40776;52.880;6.016;2023-04-07T04:08:07;29.58;;;8.57;;
54883;SDS011;40776;52.880;6.016;2023-04-07T04:10:33;21.58;;;8.10;;
54883;SDS011;40776;52.880;6.016;2023-04-07T04:12:59;18.02;;;8.20;;
54883;SDS011;40776;52.880;6.016;2023-04-07T04:15:27;20.23;;;8.35;;
54883;SDS011;40776;52.880;6.016;2023-04-07T04:17:53;26.25;;;8.23;;
54883;SDS011;40776;52.880;6.016;2023-04-07T04:20:19;28.85;;;9.13;;
54883;SDS011;40776;52.880;6.016;2023-04-07T04:22:46;19.75;;;8.30;;
54883;SDS011;40776;52.880;6.016;2023-04-07T04:25:12;23.27;;;9.98;;
54883;SDS011;40776;52.880;6.016;2023-04-07T04:27:38;22.65;;;8.25;;
54883;SDS011;40776;52.880;6.016;2023-04-07T04:30:04;23.75;;;8.77;;
54883;SDS011;40776;52.880;6.016;2023-04-07T04:32:30;26.67;;;9.43;;
54883;SDS011;40776;52.880;6.016;2023-04-07T04:34:56;21.08;;;7.75;;
54883;SDS011;40776;52.880;6.016;2023-04-07T04:37:22;20.48;;;7.78;;
54883;SDS011;40776;52.880;6.016;2023-04-07T04:39:48;19.40;;;7.88;;
54883;SDS011;40776;52.880;6.016;2023-04-07T04:42:14;23.33;;;8.77;;
54883;SDS011;40776;52.880;6.016;2023-04-07T04:44:40;24.27;;;8.82;;
54883;SDS011;40776;52.880;6.016;2023-04-07T04:47:06;19.45;;;8.23;;
54883;SDS011;40776;52.880;6.016;2023-04-07T04:49:32;21.92;;;8.80;;
54883;SDS011;40776;52.880;6.016;2023-04-07T04:51:58;26.13;;;9.32;;
54883;SDS011;40776;52.880;6.016;2023-04-07T04:54:24;23.65;;;8.38;;
54883;SDS011;40776;52.880;6.016;2023-04-07T04:56:50;25.65;;;8.45;;
54883;SDS011;40776;52.880;6.016;2023-04-07T04:59:17;25.85;;;8.18;;
54883;SDS011;40776;52.880;6.016;2023-04-07T05:01:43;25.58;;;9.00;;
54883;SDS011;40776;52.880;6.016;2023-04-07T05:04:09;21.13;;;8.52;;
54883;SDS011;40776;52.880;6.016;2023-04-07T05:06:35;30.10;;;10.07;;
54883;SDS011;40776;52.880;6.016;2023-04-07T05:09:01;27.73;;;9.38;;
54883;SDS011;40776;52.880;6.016;2023-04-07T05:11:27;27.05;;;9.75;;
54883;SDS011;40776;52.880;6.016;2023-04-07T05:13:53;25.17;;;10.70;;
54883;SDS011;40776;52.880;6.016;2023-04-07T05:16:20;22.10;;;10.15;;
54883;SDS011;40776;52.880;6.016;2023-04-07T05:18:46;23.70;;;10.43;;
54883;SDS011;40776;52.880;6.016;2023-04-07T05:21:12;19.42;;;10.75;;
54883;SDS011;40776;52.880;6.016;2023-04-07T05:23:38;24.63;;;9.13;;
54883;SDS011;40776;52.880;6.016;2023-04-07T05:26:04;29.85;;;9.10;;
54883;SDS011;40776;52.880;6.016;2023-04-07T05:28:30;26.17;;;10.35;;
54883;SDS011;40776;52.880;6.016;2023-04-07T05:30:56;25.17;;;10.07;;
54883;SDS011;40776;52.880;6.016;2023-04-07T05:33:22;25.20;;;9.07;;
54883;SDS011;40776;52.880;6.016;2023-04-07T05:35:48;23.17;;;8.93;;
54883;SDS011;40776;52.880;6.016;2023-04-07T05:38:14;19.40;;;7.82;;
54883;SDS011;40776;52.880;6.016;2023-04-07T05:40:41;21.83;;;8.80;;
54883;SDS011;40776;52.880;6.016;2023-04-07T05:43:07;26.95;;;9.40;;
54883;SDS011;40776;52.880;6.016;2023-04-07T05:45:33;29.23;;;9.45;;
54883;SDS011;40776;52.880;6.016;2023-04-07T05:47:59;23.88;;;9.70;;
54883;SDS011;40776;52.880;6.016;2023-04-07T05:50:25;20.85;;;8.55;;
54883;SDS011;40776;52.880;6.016;2023-04-07T05:52:51;26.52;;;9.90;;
54883;SDS011;40776;52.880;6.016;2023-04-07T05:55:17;23.52;;;9.25;;
54883;SDS011;40776;52.880;6.016;2023-04-07T05:57:43;19.13;;;9.23;;
54883;SDS011;40776;52.880;6.016;2023-04-07T06:00:09;29.85;;;11.18;;
54883;SDS011;40776;52.880;6.016;2023-04-07T06:02:35;25.85;;;10.85;;
54883;SDS011;40776;52.880;6.016;2023-04-07T06:05:03;26.10;;;10.85;;
54883;SDS011;40776;52.880;6.016;2023-04-07T06:07:29;22.83;;;11.27;;
54883;SDS011;40776;52.880;6.016;2023-04-07T06:09:56;32.33;;;12.20;;
54883;SDS011;40776;52.880;6.016;2023-04-07T06:12:22;28.27;;;11.27;;
54883;SDS011;40776;52.880;6.016;2023-04-07T06:14:54;25.90;;;10.40;;
54883;SDS011;40776;52.880;6.016;2023-04-07T06:17:21;26.70;;;10.88;;
54883;SDS011;40776;52.880;6.016;2023-04-07T06:19:47;30.98;;;11.98;;
54883;SDS011;40776;52.880;6.016;2023-04-07T06:22:13;31.90;;;12.48;;
54883;SDS011;40776;52.880;6.016;2023-04-07T06:24:39;35.13;;;11.45;;
54883;SDS011;40776;52.880;6.016;2023-04-07T06:27:05;25.42;;;11.73;;
54883;SDS011;40776;52.880;6.016;2023-04-07T06:29:32;33.38;;;12.00;;
54883;SDS011;40776;52.880;6.016;2023-04-07T06:31:58;23.15;;;10.32;;
54883;SDS011;40776;52.880;6.016;2023-04-07T06:34:25;27.02;;;11.73;;
54883;SDS011;40776;52.880;6.016;2023-04-07T06:36:51;24.98;;;12.38;;
54883;SDS011;40776;52.880;6.016;2023-04-07T06:39:17;24.10;;;12.13;;
54883;SDS011;40776;52.880;6.016;2023-04-07T06:41:43;25.35;;;13.77;;
54883;SDS011;40776;52.880;6.016;2023-04-07T06:44:09;23.83;;;14.20;;
54883;SDS011;40776;52.880;6.016;2023-04-07T06:46:35;23.02;;;13.60;;
54883;SDS011;40776;52.880;6.016;2023-04-07T06:49:01;22.33;;;13.52;;
54883;SDS011;40776;52.880;6.016;2023-04-07T06:51:29;20.38;;;13.27;;
54883;SDS011;40776;52.880;6.016;2023-04-07T06:53:56;22.25;;;13.38;;
54883;SDS011;40776;52.880;6.016;2023-04-07T06:56:22;19.83;;;12.45;;
54883;SDS011;40776;52.880;6.016;2023-04-07T07:01:45;22.98;;;13.60;;
54883;SDS011;40776;52.880;6.016;2023-04-07T07:04:11;19.63;;;13.27;;
54883;SDS011;40776;52.880;6.016;2023-04-07T07:06:37;20.48;;;13.43;;
54883;SDS011;40776;52.880;6.016;2023-04-07T07:09:03;20.10;;;12.90;;
54883;SDS011;40776;52.880;6.016;2023-04-07T07:11:29;19.13;;;13.32;;
54883;SDS011;40776;52.880;6.016;2023-04-07T07:13:55;20.27;;;13.70;;
54883;SDS011;40776;52.880;6.016;2023-04-07T07:16:21;19.15;;;12.88;;
54883;SDS011;40776;52.880;6.016;2023-04-07T07:18:48;22.10;;;14.65;;
54883;SDS011;40776;52.880;6.016;2023-04-07T07:21:15;23.45;;;15.10;;
54883;SDS011;40776;52.880;6.016;2023-04-07T07:23:41;20.65;;;14.00;;
54883;SDS011;40776;52.880;6.016;2023-04-07T07:26:08;20.50;;;14.13;;
54883;SDS011;40776;52.880;6.016;2023-04-07T07:28:34;20.17;;;13.02;;
54883;SDS011;40776;52.880;6.016;2023-04-07T07:31:06;20.60;;;13.90;;
54883;SDS011;40776;52.880;6.016;2023-04-07T07:33:34;20.02;;;12.50;;
54883;SDS011;40776;52.880;6.016;2023-04-07T07:36:00;20.13;;;14.20;;
54883;SDS011;40776;52.880;6.016;2023-04-07T07:38:26;21.15;;;14.02;;
54883;SDS011;40776;52.880;6.016;2023-04-07T07:40:52;20.67;;;14.15;;
54883;SDS011;40776;52.880;6.016;2023-04-07T07:43:18;19.17;;;12.95;;
54883;SDS011;40776;52.880;6.016;2023-04-07T07:45:44;20.58;;;13.38;;
54883;SDS011;40776;52.880;6.016;2023-04-07T07:48:10;18.10;;;12.27;;
54883;SDS011;40776;52.880;6.016;2023-04-07T07:50:36;19.45;;;12.82;;
54883;SDS011;40776;52.880;6.016;2023-04-07T07:53:02;21.52;;;12.70;;
54883;SDS011;40776;52.880;6.016;2023-04-07T07:55:28;19.95;;;13.82;;
54883;SDS011;40776;52.880;6.016;2023-04-07T07:57:54;17.20;;;12.30;;
54883;SDS011;40776;52.880;6.016;2023-04-07T08:00:20;22.15;;;13.88;;
54883;SDS011;40776;52.880;6.016;2023-04-07T08:02:48;25.20;;;16.00;;
54883;SDS011;40776;52.880;6.016;2023-04-07T08:05:14;19.70;;;13.85;;
54883;SDS011;40776;52.880;6.016;2023-04-07T08:07:40;20.15;;;13.63;;
54883;SDS011;40776;52.880;6.016;2023-04-07T08:10:07;17.95;;;12.35;;
54883;SDS011;40776;52.880;6.016;2023-04-07T08:12:33;17.00;;;10.68;;
54883;SDS011;40776;52.880;6.016;2023-04-07T08:14:59;17.60;;;12.07;;
54883;SDS011;40776;52.880;6.016;2023-04-07T08:17:26;16.67;;;12.05;;
54883;SDS011;40776;52.880;6.016;2023-04-07T08:19:52;16.95;;;11.27;;
54883;SDS011;40776;52.880;6.016;2023-04-07T08:22:18;16.27;;;11.32;;
54883;SDS011;40776;52.880;6.016;2023-04-07T08:24:45;16.77;;;12.55;;
54883;SDS011;40776;52.880;6.016;2023-04-07T08:27:11;18.02;;;11.88;;
54883;SDS011;40776;52.880;6.016;2023-04-07T08:29:37;16.83;;;11.93;;
54883;SDS011;40776;52.880;6.016;2023-04-07T08:32:03;17.25;;;11.43;;
54883;SDS011;40776;52.880;6.016;2023-04-07T08:34:30;18.40;;;11.10;;
54883;SDS011;40776;52.880;6.016;2023-04-07T08:36:56;16.88;;;12.13;;
54883;SDS011;40776;52.880;6.016;2023-04-07T08:39:22;15.52;;;10.70;;
54883;SDS011;40776;52.880;6.016;2023-04-07T08:41:49;14.70;;;10.40;;
54883;SDS011;40776;52.880;6.016;2023-04-07T08:44:15;16.48;;;9.55;;
54883;SDS011;40776;52.880;6.016;2023-04-07T08:46:41;14.38;;;10.30;;
54883;SDS011;40776;52.880;6.016;2023-04-07T08:49:09;14.80;;;10.45;;
54883;SDS011;40776;52.880;6.016;2023-04-07T08:51:37;14.73;;;10.18;;
54883;SDS011;40776;52.880;6.016;2023-04-07T08:54:08;14.63;;;10.18;;
54883;SDS011;40776;52.880;6.016;2023-04-07T08:56:38;15.75;;;10.75;;
54883;SDS011;40776;52.880;6.016;2023-04-07T08:59:08;15.18;;;10.98;;
54883;SDS011;40776;52.880;6.016;2023-04-07T09:01:35;14.80;;;10.00;;
54883;SDS011;40776;52.880;6.016;2023-04-07T09:04:02;16.30;;;10.82;;
54883;SDS011;40776;52.880;6.016;2023-04-07T09:06:34;13.23;;;9.90;;
54883;SDS011;40776;52.880;6.016;2023-04-07T09:09:01;17.77;;;11.32;;
54883;SDS011;40776;52.880;6.016;2023-04-07T09:11:27;14.77;;;9.82;;
54883;SDS011;40776;52.880;6.016;2023-04-07T09:13:54;15.18;;;9.25;;
54883;SDS011;40776;52.880;6.016;2023-04-07T09:16:20;12.38;;;7.90;;
54883;SDS011;40776;52.880;6.016;2023-04-07T09:18:47;11.23;;;7.07;;
54883;SDS011;40776;52.880;6.016;2023-04-07T09:21:13;10.60;;;6.90;;
54883;SDS011;40776;52.880;6.016;2023-04-07T09:23:40;8.73;;;6.40;;
54883;SDS011;40776;52.880;6.016;2023-04-07T09:26:23;9.70;;;6.95;;
54883;SDS011;40776;52.880;6.016;2023-04-07T09:28:59;10.45;;;6.88;;
54883;SDS011;40776;52.880;6.016;2023-04-07T09:31:43;10.48;;;7.47;;
54883;SDS011;40776;52.880;6.016;2023-04-07T09:34:23;10.38;;;6.70;;
54883;SDS011;40776;52.880;6.016;2023-04-07T09:36:50;8.63;;;6.13;;
54883;SDS011;40776;52.880;6.016;2023-04-07T09:39:16;9.52;;;6.45;;
54883;SDS011;40776;52.880;6.016;2023-04-07T09:41:43;9.30;;;6.85;;
54883;SDS011;40776;52.880;6.016;2023-04-07T09:44:09;9.40;;;6.45;;
54883;SDS011;40776;52.880;6.016;2023-04-07T09:46:36;9.82;;;6.55;;
54883;SDS011;40776;52.880;6.016;2023-04-07T09:49:12;8.43;;;6.53;;
54883;SDS011;40776;52.880;6.016;2023-04-07T09:51:42;8.10;;;6.07;;
54883;SDS011;40776;52.880;6.016;2023-04-07T09:54:23;10.32;;;6.47;;
54883;SDS011;40776;52.880;6.016;2023-04-07T09:56:57;10.02;;;7.13;;
54883;SDS011;40776;52.880;6.016;2023-04-07T09:59:24;10.63;;;7.40;;
54883;SDS011;40776;52.880;6.016;2023-04-07T10:01:50;12.75;;;8.25;;
54883;SDS011;40776;52.880;6.016;2023-04-07T10:04:16;10.45;;;7.55;;
54883;SDS011;40776;52.880;6.016;2023-04-07T10:06:42;11.75;;;8.55;;
54883;SDS011;40776;52.880;6.016;2023-04-07T10:09:09;11.50;;;7.57;;
54883;SDS011;40776;52.880;6.016;2023-04-07T10:11:36;11.75;;;8.75;;
54883;SDS011;40776;52.880;6.016;2023-04-07T10:14:02;10.68;;;7.45;;
54883;SDS011;40776;52.880;6.016;2023-04-07T10:16:28;11.35;;;8.88;;
54883;SDS011;40776;52.880;6.016;2023-04-07T10:18:55;13.20;;;8.38;;
54883;SDS011;40776;52.880;6.016;2023-04-07T10:21:21;11.85;;;9.13;;
54883;SDS011;40776;52.880;6.016;2023-04-07T10:23:48;12.80;;;9.23;;
54883;SDS011;40776;52.880;6.016;2023-04-07T10:26:16;14.77;;;9.88;;
54883;SDS011;40776;52.880;6.016;2023-04-07T10:28:43;14.50;;;9.60;;
54883;SDS011;40776;52.880;6.016;2023-04-07T10:31:11;14.70;;;10.57;;
54883;SDS011;40776;52.880;6.016;2023-04-07T10:33:44;13.05;;;9.68;;
54883;SDS011;40776;52.880;6.016;2023-04-07T10:36:11;15.70;;;10.77;;
54883;SDS011;40776;52.880;6.016;2023-04-07T10:38:37;14.93;;;9.98;;
54883;SDS011;40776;52.880;6.016;2023-04-07T10:44:07;15.68;;;10.15;;
54883;SDS011;40776;52.880;6.016;2023-04-07T10:49:11;15.88;;;10.63;;
54883;SDS011;40776;52.880;6.016;2023-04-07T10:51:37;12.95;;;9.77;;
54883;SDS011;40776;52.880;6.016;2023-04-07T10:54:14;13.68;;;10.02;;
54883;SDS011;40776;52.880;6.016;2023-04-07T10:59:32;12.27;;;9.77;;
54883;SDS011;40776;52.880;6.016;2023-04-07T11:04:37;11.93;;;9.43;;
54883;SDS011;40776;52.880;6.016;2023-04-07T11:07:04;12.18;;;8.65;;
54883;SDS011;40776;52.880;6.016;2023-04-07T11:09:31;12.10;;;8.68;;
54883;SDS011;40776;52.880;6.016;2023-04-07T11:11:57;10.90;;;8.75;;
54883;SDS011;40776;52.880;6.016;2023-04-07T11:16:52;11.13;;;8.40;;
54883;SDS011;40776;52.880;6.016;2023-04-07T11:19:18;13.15;;;8.75;;
54883;SDS011;40776;52.880;6.016;2023-04-07T11:21:44;10.70;;;7.78;;
54883;SDS011;40776;52.880;6.016;2023-04-07T11:24:30;9.93;;;7.43;;
54883;SDS011;40776;52.880;6.016;2023-04-07T11:26:56;10.65;;;8.15;;
54883;SDS011;40776;52.880;6.016;2023-04-07T11:29:32;8.52;;;6.75;;
54883;SDS011;40776;52.880;6.016;2023-04-07T11:31:59;10.77;;;8.32;;
54883;SDS011;40776;52.880;6.016;2023-04-07T11:34:29;10.18;;;7.72;;
54883;SDS011;40776;52.880;6.016;2023-04-07T11:36:55;11.18;;;7.82;;
54883;SDS011;40776;52.880;6.016;2023-04-07T11:39:24;14.15;;;9.68;;
54883;SDS011;40776;52.880;6.016;2023-04-07T11:41:57;11.05;;;8.60;;
54883;SDS011;40776;52.880;6.016;2023-04-07T11:44:23;12.52;;;8.50;;
54883;SDS011;40776;52.880;6.016;2023-04-07T11:46:56;10.60;;;8.02;;
54883;SDS011;40776;52.880;6.016;2023-04-07T11:49:22;10.13;;;7.47;;
54883;SDS011;40776;52.880;6.016;2023-04-07T11:51:56;9.57;;;7.38;;
54883;SDS011;40776;52.880;6.016;2023-04-07T11:54:22;11.63;;;8.30;;
54883;SDS011;40776;52.880;6.016;2023-04-07T11:56:48;10.38;;;7.90;;
54883;SDS011;40776;52.880;6.016;2023-04-07T11:59:19;11.43;;;9.07;;
54883;SDS011;40776;52.880;6.016;2023-04-07T12:01:47;11.20;;;8.27;;
54883;SDS011;40776;52.880;6.016;2023-04-07T12:04:13;9.48;;;7.43;;
54883;SDS011;40776;52.880;6.016;2023-04-07T12:06:42;11.30;;;8.52;;
54883;SDS011;40776;52.880;6.016;2023-04-07T12:09:24;11.98;;;9.40;;
54883;SDS011;40776;52.880;6.016;2023-04-07T12:11:53;13.85;;;10.38;;
54883;SDS011;40776;52.880;6.016;2023-04-07T12:14:20;12.60;;;9.68;;
54883;SDS011;40776;52.880;6.016;2023-04-07T12:16:46;11.82;;;9.00;;
54883;SDS011;40776;52.880;6.016;2023-04-07T12:19:12;13.55;;;10.23;;
54883;SDS011;40776;52.880;6.016;2023-04-07T12:21:38;16.65;;;9.57;;
54883;SDS011;40776;52.880;6.016;2023-04-07T12:24:05;14.80;;;8.90;;
54883;SDS011;40776;52.880;6.016;2023-04-07T12:26:31;12.25;;;9.15;;
54883;SDS011;40776;52.880;6.016;2023-04-07T12:28:57;11.25;;;7.68;;
54883;SDS011;40776;52.880;6.016;2023-04-07T12:31:29;11.07;;;8.70;;
54883;SDS011;40776;52.880;6.016;2023-04-07T12:33:58;8.77;;;6.82;;
54883;SDS011;40776;52.880;6.016;2023-04-07T12:36:24;10.43;;;7.15;;
54883;SDS011;40776;52.880;6.016;2023-04-07T12:38:52;7.65;;;5.20;;
54883;SDS011;40776;52.880;6.016;2023-04-07T12:41:18;6.80;;;5.40;;
54883;SDS011;40776;52.880;6.016;2023-04-07T12:43:47;7.30;;;5.28;;
54883;SDS011;40776;52.880;6.016;2023-04-07T12:46:13;6.95;;;4.97;;
54883;SDS011;40776;52.880;6.016;2023-04-07T12:48:40;6.50;;;4.85;;
54883;SDS011;40776;52.880;6.016;2023-04-07T12:51:06;7.40;;;5.32;;
54883;SDS011;40776;52.880;6.016;2023-04-07T12:53:32;6.22;;;5.07;;
54883;SDS011;40776;52.880;6.016;2023-04-07T12:55:58;8.48;;;5.22;;
54883;SDS011;40776;52.880;6.016;2023-04-07T12:58:24;7.25;;;5.25;;
54883;SDS011;40776;52.880;6.016;2023-04-07T13:00:51;7.82;;;5.85;;
54883;SDS011;40776;52.880;6.016;2023-04-07T13:03:17;9.55;;;5.82;;
54883;SDS011;40776;52.880;6.016;2023-04-07T13:05:43;8.13;;;6.35;;
54883;SDS011;40776;52.880;6.016;2023-04-07T13:08:09;10.48;;;7.28;;
54883;SDS011;40776;52.880;6.016;2023-04-07T13:10:35;12.02;;;7.70;;
54883;SDS011;40776;52.880;6.016;2023-04-07T13:13:01;12.43;;;10.02;;
54883;SDS011;40776;52.880;6.016;2023-04-07T13:15:28;12.65;;;10.35;;
54883;SDS011;40776;52.880;6.016;2023-04-07T13:17:54;15.10;;;10.50;;
54883;SDS011;40776;52.880;6.016;2023-04-07T13:20:20;13.55;;;10.75;;
54883;SDS011;40776;52.880;6.016;2023-04-07T13:22:46;11.70;;;9.68;;
54883;SDS011;40776;52.880;6.016;2023-04-07T13:25:13;12.48;;;9.38;;
54883;SDS011;40776;52.880;6.016;2023-04-07T13:27:39;11.05;;;8.00;;
54883;SDS011;40776;52.880;6.016;2023-04-07T13:30:05;10.60;;;7.30;;
54883;SDS011;40776;52.880;6.016;2023-04-07T13:32:31;10.10;;;6.97;;
54883;SDS011;40776;52.880;6.016;2023-04-07T13:34:58;8.88;;;6.88;;
54883;SDS011;40776;52.880;6.016;2023-04-07T13:37:24;8.85;;;6.68;;
54883;SDS011;40776;52.880;6.016;2023-04-07T13:39:51;9.32;;;6.93;;
54883;SDS011;40776;52.880;6.016;2023-04-07T13:42:17;9.77;;;7.28;;
54883;SDS011;40776;52.880;6.016;2023-04-07T13:44:44;10.90;;;6.90;;
54883;SDS011;40776;52.880;6.016;2023-04-07T13:47:12;9.23;;;6.20;;
54883;SDS011;40776;52.880;6.016;2023-04-07T13:49:47;9.48;;;5.82;;
54883;SDS011;40776;52.880;6.016;2023-04-07T13:52:13;11.25;;;6.07;;
54883;SDS011;40776;52.880;6.016;2023-04-07T13:54:40;19.55;;;7.13;;
54883;SDS011;40776;52.880;6.016;2023-04-07T13:57:06;18.10;;;7.10;;
54883;SDS011;40776;52.880;6.016;2023-04-07T13:59:32;8.65;;;6.18;;
54883;SDS011;40776;52.880;6.016;2023-04-07T14:01:58;10.48;;;6.75;;
54883;SDS011;40776;52.880;6.016;2023-04-07T14:04:24;9.68;;;7.00;;
54883;SDS011;40776;52.880;6.016;2023-04-07T14:06:51;8.88;;;6.70;;
54883;SDS011;40776;52.880;6.016;2023-04-07T14:09:17;11.13;;;7.20;;
54883;SDS011;40776;52.880;6.016;2023-04-07T14:11:43;9.13;;;6.53;;
54883;SDS011;40776;52.880;6.016;2023-04-07T14:14:09;10.95;;;7.22;;
54883;SDS011;40776;52.880;6.016;2023-04-07T14:16:35;10.40;;;6.47;;
54883;SDS011;40776;52.880;6.016;2023-04-07T14:19:01;10.32;;;6.60;;
54883;SDS011;40776;52.880;6.016;2023-04-07T14:21:28;10.20;;;6.65;;
54883;SDS011;40776;52.880;6.016;2023-04-07T14:23:55;9.13;;;6.35;;
54883;SDS011;40776;52.880;6.016;2023-04-07T14:26:21;8.88;;;6.03;;
54883;SDS011;40776;52.880;6.016;2023-04-07T14:28:47;9.05;;;6.68;;
54883;SDS011;40776;52.880;6.016;2023-04-07T14:31:14;8.93;;;6.05;;
54883;SDS011;40776;52.880;6.016;2023-04-07T14:33:41;10.02;;;6.55;;
54883;SDS011;40776;52.880;6.016;2023-04-07T14:36:07;13.02;;;7.65;;
54883;SDS011;40776;52.880;6.016;2023-04-07T14:38:34;11.63;;;7.47;;
54883;SDS011;40776;52.880;6.016;2023-04-07T14:41:00;15.82;;;8.13;;
54883;SDS011;40776;52.880;6.016;2023-04-07T14:43:27;8.80;;;5.75;;
54883;SDS011;40776;52.880;6.016;2023-04-07T14:45:53;9.05;;;5.80;;
54883;SDS011;40776;52.880;6.016;2023-04-07T14:48:19;7.18;;;5.45;;
54883;SDS011;40776;52.880;6.016;2023-04-07T14:50:46;15.13;;;7.28;;